WTB08M KTPA-KHOU
Flight info
| Callsign | WTB08M |
|---|---|
| Flight time | 1h 52m |
| Altitude | 34000 |
| Route | DORMR3 FROOT ROZZI Y280 LEV PUCKS4 |
| Aircraft | A306/H-SDE3FGHIRWY/LB1 |
Departure
| Time | 2026-05-07 09:48 |
|---|---|
| Airport | Tampa International Airport (KTPA) |
Arrival
| Time | 2026-05-07 11:41 |
|---|---|
| Airport | William P. Hobby Airport (KHOU) |
| Time | Latitude | Longitude | Altitude | Speed | Heading |
|---|---|---|---|---|---|
| 2026-05-07 09:14 | 27.97417 | -82.52043 | 44 ft | 0 kts | 91° |
| 2026-05-07 09:34 | 27.97418 | -82.52064 | 42 ft | 3 kts | 91° |
| 2026-05-07 09:34 | 27.97418 | -82.52085 | 42 ft | 3 kts | 91° |
| 2026-05-07 09:34 | 27.97418 | -82.52106 | 41 ft | 3 kts | 91° |
| 2026-05-07 09:34 | 27.97419 | -82.52113 | 41 ft | 0 kts | 91° |
| 2026-05-07 09:38 | 27.97419 | -82.52111 | 44 ft | 2 kts | 91° |
| 2026-05-07 09:38 | 27.97414 | -82.52099 | 44 ft | 3 kts | 117° |
| 2026-05-07 09:38 | 27.97389 | -82.52090 | 44 ft | 6 kts | 186° |
| 2026-05-07 09:38 | 27.97346 | -82.52120 | 44 ft | 8 kts | 217° |
| 2026-05-07 09:39 | 27.97301 | -82.52144 | 44 ft | 6 kts | 196° |
| 2026-05-07 09:39 | 27.97258 | -82.52151 | 44 ft | 6 kts | 184° |
| 2026-05-07 09:39 | 27.97221 | -82.52155 | 44 ft | 5 kts | 186° |
| 2026-05-07 09:39 | 27.97193 | -82.52168 | 44 ft | 5 kts | 215° |
| 2026-05-07 09:40 | 27.97152 | -82.52202 | 45 ft | 10 kts | 203° |
| 2026-05-07 09:40 | 27.97083 | -82.52212 | 48 ft | 9 kts | 184° |
| 2026-05-07 09:40 | 27.97029 | -82.52216 | 49 ft | 9 kts | 182° |
| 2026-05-07 09:40 | 27.96956 | -82.52228 | 49 ft | 12 kts | 208° |
| 2026-05-07 09:41 | 27.96933 | -82.52328 | 48 ft | 16 kts | 270° |
| 2026-05-07 09:41 | 27.96936 | -82.52465 | 48 ft | 18 kts | 272° |
| 2026-05-07 09:41 | 27.96939 | -82.52594 | 49 ft | 15 kts | 271° |
| 2026-05-07 09:41 | 27.96941 | -82.52708 | 48 ft | 14 kts | 268° |
| 2026-05-07 09:42 | 27.96876 | -82.52760 | 47 ft | 12 kts | 185° |
| 2026-05-07 09:42 | 27.96794 | -82.52767 | 46 ft | 11 kts | 183° |
| 2026-05-07 09:42 | 27.96723 | -82.52768 | 47 ft | 9 kts | 182° |
| 2026-05-07 09:42 | 27.96665 | -82.52770 | 47 ft | 7 kts | 180° |
| 2026-05-07 09:43 | 27.96615 | -82.52771 | 48 ft | 9 kts | 181° |
| 2026-05-07 09:43 | 27.96549 | -82.52773 | 48 ft | 9 kts | 180° |
| 2026-05-07 09:43 | 27.96489 | -82.52774 | 48 ft | 8 kts | 183° |
| 2026-05-07 09:43 | 27.96462 | -82.52787 | 48 ft | 0 kts | 218° |
| 2026-05-07 09:46 | 27.96448 | -82.52812 | 48 ft | 6 kts | 248° |
| 2026-05-07 09:46 | 27.96448 | -82.52877 | 49 ft | 7 kts | 304° |
| 2026-05-07 09:47 | 27.96480 | -82.52892 | 48 ft | 0 kts | 354° |
| 2026-05-07 09:48 | 27.96660 | -82.52890 | 47 ft | 61 kts | 1° |
| 2026-05-07 09:48 | 27.97313 | -82.52871 | 45 ft | 124 kts | 2° |
| 2026-05-07 09:48 | 27.98358 | -82.52832 | 113 ft | 171 kts | 1° |
| 2026-05-07 09:48 | 27.99551 | -82.52829 | 826 ft | 176 kts | 359° |
| 2026-05-07 09:49 | 28.00897 | -82.52915 | 1282 ft | 205 kts | 355° |
| 2026-05-07 09:49 | 28.02423 | -82.53042 | 1750 ft | 237 kts | 356° |
| 2026-05-07 09:49 | 28.04158 | -82.53142 | 2288 ft | 259 kts | 356° |
| 2026-05-07 09:49 | 28.05990 | -82.53236 | 3155 ft | 266 kts | 356° |
| 2026-05-07 09:50 | 28.07810 | -82.53652 | 4057 ft | 269 kts | 335° |
| 2026-05-07 09:50 | 28.09315 | -82.54869 | 4915 ft | 269 kts | 308° |
| 2026-05-07 09:50 | 28.10140 | -82.56758 | 5574 ft | 272 kts | 277° |
| 2026-05-07 09:50 | 28.09970 | -82.58844 | 6250 ft | 272 kts | 245° |
| 2026-05-07 09:51 | 28.08972 | -82.60686 | 7013 ft | 272 kts | 231° |
| 2026-05-07 09:51 | 28.07825 | -82.62373 | 7754 ft | 275 kts | 231° |
| 2026-05-07 09:51 | 28.06650 | -82.64087 | 8514 ft | 277 kts | 231° |
| 2026-05-07 09:51 | 28.05468 | -82.65831 | 9274 ft | 280 kts | 232° |
| 2026-05-07 09:52 | 28.04286 | -82.67594 | 10049 ft | 283 kts | 232° |
| 2026-05-07 09:52 | 28.03079 | -82.69410 | 10515 ft | 296 kts | 234° |
| 2026-05-07 09:52 | 28.02042 | -82.71505 | 10780 ft | 315 kts | 248° |
| 2026-05-07 09:52 | 28.01496 | -82.73968 | 11039 ft | 331 kts | 260° |
| 2026-05-07 09:53 | 28.01171 | -82.76606 | 11286 ft | 345 kts | 262° |
| 2026-05-07 09:53 | 28.00885 | -82.79360 | 11525 ft | 359 kts | 263° |
| 2026-05-07 09:53 | 28.00600 | -82.82211 | 11783 ft | 369 kts | 263° |
| 2026-05-07 09:53 | 28.00312 | -82.85127 | 12164 ft | 375 kts | 263° |
| 2026-05-07 09:54 | 28.00022 | -82.88071 | 12616 ft | 378 kts | 263° |
| 2026-05-07 09:54 | 27.99728 | -82.91042 | 13105 ft | 381 kts | 263° |
| 2026-05-07 09:54 | 27.99432 | -82.94029 | 13586 ft | 383 kts | 263° |
| 2026-05-07 09:54 | 27.99135 | -82.97021 | 14050 ft | 385 kts | 264° |
| 2026-05-07 09:55 | 27.98838 | -83.00001 | 14487 ft | 386 kts | 264° |
| 2026-05-07 09:55 | 27.98536 | -83.03027 | 14946 ft | 387 kts | 264° |
| 2026-05-07 09:55 | 27.98229 | -83.06102 | 15413 ft | 389 kts | 264° |
| 2026-05-07 09:55 | 27.97923 | -83.09149 | 15871 ft | 390 kts | 264° |
| 2026-05-07 09:56 | 27.97621 | -83.12162 | 16330 ft | 391 kts | 264° |
| 2026-05-07 09:56 | 27.97312 | -83.15230 | 16789 ft | 393 kts | 264° |
| 2026-05-07 09:56 | 27.97001 | -83.18309 | 17236 ft | 394 kts | 265° |
| 2026-05-07 09:56 | 27.96690 | -83.21388 | 17683 ft | 396 kts | 265° |
| 2026-05-07 09:57 | 27.96376 | -83.24488 | 18114 ft | 397 kts | 265° |
| 2026-05-07 09:57 | 27.96059 | -83.27610 | 18496 ft | 399 kts | 265° |
| 2026-05-07 09:57 | 27.95741 | -83.30725 | 18848 ft | 400 kts | 265° |
| 2026-05-07 09:57 | 27.95421 | -83.33859 | 19194 ft | 401 kts | 265° |
| 2026-05-07 09:58 | 27.95101 | -83.36994 | 19536 ft | 403 kts | 265° |
| 2026-05-07 09:58 | 27.94776 | -83.40158 | 19869 ft | 404 kts | 265° |
| 2026-05-07 09:58 | 27.94452 | -83.43311 | 20198 ft | 405 kts | 265° |
| 2026-05-07 09:58 | 27.94125 | -83.46482 | 20522 ft | 406 kts | 265° |
| 2026-05-07 09:59 | 27.93797 | -83.49662 | 20846 ft | 407 kts | 265° |
| 2026-05-07 09:59 | 27.93467 | -83.52850 | 21160 ft | 408 kts | 265° |
| 2026-05-07 09:59 | 27.93140 | -83.56011 | 21459 ft | 410 kts | 264° |
| 2026-05-07 09:59 | 27.92806 | -83.59220 | 21765 ft | 411 kts | 264° |
| 2026-05-07 10:00 | 27.92471 | -83.62438 | 22062 ft | 412 kts | 264° |
| 2026-05-07 10:00 | 27.92133 | -83.65668 | 22344 ft | 414 kts | 264° |
| 2026-05-07 10:00 | 27.91794 | -83.68914 | 22582 ft | 417 kts | 264° |
| 2026-05-07 10:00 | 27.91452 | -83.72170 | 22828 ft | 419 kts | 264° |
| 2026-05-07 10:01 | 27.91107 | -83.75458 | 23107 ft | 420 kts | 264° |
| 2026-05-07 10:01 | 27.90761 | -83.78735 | 23384 ft | 421 kts | 264° |
| 2026-05-07 10:01 | 27.90413 | -83.82030 | 23650 ft | 422 kts | 264° |
| 2026-05-07 10:01 | 27.90064 | -83.85326 | 23876 ft | 424 kts | 264° |
| 2026-05-07 10:02 | 27.89712 | -83.88640 | 24079 ft | 425 kts | 264° |
| 2026-05-07 10:02 | 27.89359 | -83.91966 | 24284 ft | 426 kts | 264° |
| 2026-05-07 10:02 | 27.89003 | -83.95301 | 24478 ft | 428 kts | 264° |
| 2026-05-07 10:02 | 27.88646 | -83.98649 | 24683 ft | 429 kts | 264° |
| 2026-05-07 10:03 | 27.88286 | -84.02004 | 24892 ft | 430 kts | 264° |
| 2026-05-07 10:03 | 27.87930 | -84.05320 | 25096 ft | 431 kts | 264° |
| 2026-05-07 10:03 | 27.87567 | -84.08692 | 25296 ft | 432 kts | 264° |
| 2026-05-07 10:03 | 27.87203 | -84.12073 | 25498 ft | 434 kts | 264° |
| 2026-05-07 10:04 | 27.86837 | -84.15453 | 25692 ft | 435 kts | 264° |
| 2026-05-07 10:04 | 27.86469 | -84.18853 | 25889 ft | 436 kts | 264° |
| 2026-05-07 10:04 | 27.86099 | -84.22258 | 26092 ft | 437 kts | 264° |
| 2026-05-07 10:04 | 27.85727 | -84.25673 | 26265 ft | 438 kts | 264° |
| 2026-05-07 10:05 | 27.85354 | -84.29092 | 26373 ft | 441 kts | 264° |
| 2026-05-07 10:05 | 27.84976 | -84.32548 | 26447 ft | 444 kts | 264° |
| 2026-05-07 10:05 | 27.84595 | -84.36028 | 26513 ft | 448 kts | 264° |
| 2026-05-07 10:05 | 27.84210 | -84.39532 | 26594 ft | 450 kts | 264° |
| 2026-05-07 10:06 | 27.83825 | -84.43026 | 26924 ft | 446 kts | 264° |
| 2026-05-07 10:06 | 27.83441 | -84.46502 | 27189 ft | 445 kts | 264° |
| 2026-05-07 10:06 | 27.83188 | -84.48788 | 27321 ft | 445 kts | 264° |
| 2026-05-07 10:06 | 27.82803 | -84.52260 | 27512 ft | 445 kts | 264° |
| 2026-05-07 10:07 | 27.82417 | -84.55729 | 27766 ft | 444 kts | 264° |
| 2026-05-07 10:07 | 27.82032 | -84.59189 | 27996 ft | 443 kts | 264° |
| 2026-05-07 10:07 | 27.81648 | -84.62630 | 28259 ft | 442 kts | 264° |
| 2026-05-07 10:07 | 27.81263 | -84.66074 | 28507 ft | 441 kts | 264° |
| 2026-05-07 10:08 | 27.80877 | -84.69512 | 28760 ft | 440 kts | 263° |
| 2026-05-07 10:08 | 27.80492 | -84.72940 | 29028 ft | 439 kts | 263° |
| 2026-05-07 10:08 | 27.80108 | -84.76352 | 29286 ft | 438 kts | 263° |
| 2026-05-07 10:08 | 27.79722 | -84.79766 | 29538 ft | 438 kts | 263° |
| 2026-05-07 10:09 | 27.79337 | -84.83174 | 29794 ft | 437 kts | 263° |
| 2026-05-07 10:09 | 27.78951 | -84.86575 | 30062 ft | 436 kts | 263° |
| 2026-05-07 10:09 | 27.78565 | -84.89969 | 30275 ft | 435 kts | 263° |
| 2026-05-07 10:09 | 27.78179 | -84.93358 | 30475 ft | 435 kts | 263° |
| 2026-05-07 10:10 | 27.77794 | -84.96735 | 30677 ft | 434 kts | 263° |
| 2026-05-07 10:10 | 27.77407 | -85.00117 | 30893 ft | 434 kts | 263° |
| 2026-05-07 10:10 | 27.77020 | -85.03496 | 31104 ft | 433 kts | 263° |
| 2026-05-07 10:10 | 27.76632 | -85.06870 | 31307 ft | 433 kts | 263° |
| 2026-05-07 10:11 | 27.76249 | -85.10194 | 31487 ft | 433 kts | 263° |
| 2026-05-07 10:11 | 27.75860 | -85.13566 | 31706 ft | 433 kts | 263° |
| 2026-05-07 10:11 | 27.75471 | -85.16933 | 31925 ft | 432 kts | 263° |
| 2026-05-07 10:11 | 27.75082 | -85.20285 | 32149 ft | 431 kts | 263° |
| 2026-05-07 10:12 | 27.74696 | -85.23642 | 32375 ft | 431 kts | 264° |
| 2026-05-07 10:12 | 27.74506 | -85.27014 | 32585 ft | 430 kts | 270° |
| 2026-05-07 10:12 | 27.74750 | -85.30370 | 32800 ft | 430 kts | 278° |
| 2026-05-07 10:12 | 27.75469 | -85.33652 | 33023 ft | 432 kts | 287° |
| 2026-05-07 10:13 | 27.76587 | -85.36803 | 33242 ft | 432 kts | 291° |
| 2026-05-07 10:13 | 27.77826 | -85.39899 | 33459 ft | 432 kts | 292° |
| 2026-05-07 10:13 | 27.79113 | -85.42969 | 33677 ft | 432 kts | 293° |
| 2026-05-07 10:13 | 27.80413 | -85.46020 | 33881 ft | 432 kts | 293° |
| 2026-05-07 10:14 | 27.81715 | -85.49080 | 34002 ft | 431 kts | 292° |
| 2026-05-07 10:14 | 27.84273 | -85.55148 | 34013 ft | 423 kts | 292° |
| 2026-05-07 10:15 | 27.86756 | -85.61115 | 34015 ft | 422 kts | 292° |
| 2026-05-07 10:15 | 27.89239 | -85.67121 | 34015 ft | 422 kts | 292° |
| 2026-05-07 10:16 | 27.91724 | -85.73139 | 34012 ft | 422 kts | 292° |
| 2026-05-07 10:16 | 27.94212 | -85.79168 | 34012 ft | 422 kts | 292° |
| 2026-05-07 10:17 | 27.96691 | -85.85181 | 34012 ft | 422 kts | 292° |
| 2026-05-07 10:17 | 27.99170 | -85.91206 | 34007 ft | 422 kts | 292° |
| 2026-05-07 10:18 | 28.01647 | -85.97233 | 34012 ft | 422 kts | 292° |
| 2026-05-07 10:18 | 28.04109 | -86.03232 | 34006 ft | 419 kts | 292° |
| 2026-05-07 10:19 | 28.06549 | -86.09187 | 34007 ft | 419 kts | 292° |
| 2026-05-07 10:19 | 28.09003 | -86.15188 | 34007 ft | 419 kts | 292° |
| 2026-05-07 10:20 | 28.11448 | -86.21175 | 34002 ft | 419 kts | 292° |
| 2026-05-07 10:20 | 28.13897 | -86.27180 | 34004 ft | 420 kts | 292° |
| 2026-05-07 10:21 | 28.16344 | -86.33189 | 34004 ft | 420 kts | 292° |
| 2026-05-07 10:21 | 28.18785 | -86.39193 | 34001 ft | 420 kts | 292° |
| 2026-05-07 10:22 | 28.21227 | -86.45208 | 34001 ft | 420 kts | 292° |
| 2026-05-07 10:22 | 28.23649 | -86.51183 | 33999 ft | 420 kts | 292° |
| 2026-05-07 10:23 | 28.26090 | -86.57214 | 34001 ft | 420 kts | 291° |
| 2026-05-07 10:23 | 28.28525 | -86.63241 | 34002 ft | 420 kts | 291° |
| 2026-05-07 10:24 | 28.30949 | -86.69281 | 33997 ft | 420 kts | 290° |
| 2026-05-07 10:24 | 28.32924 | -86.75492 | 33999 ft | 418 kts | 286° |
| 2026-05-07 10:25 | 28.34762 | -86.81715 | 33996 ft | 417 kts | 286° |
| 2026-05-07 10:25 | 28.36587 | -86.87996 | 33996 ft | 416 kts | 286° |
| 2026-05-07 10:26 | 28.38386 | -86.94190 | 33994 ft | 416 kts | 286° |
| 2026-05-07 10:26 | 28.40211 | -87.00464 | 33996 ft | 415 kts | 286° |
| 2026-05-07 10:27 | 28.42010 | -87.06655 | 33996 ft | 415 kts | 286° |
| 2026-05-07 10:27 | 28.43820 | -87.12893 | 33991 ft | 416 kts | 286° |
| 2026-05-07 10:28 | 28.45625 | -87.19127 | 33996 ft | 416 kts | 286° |
| 2026-05-07 10:28 | 28.47430 | -87.25370 | 33992 ft | 415 kts | 286° |
| 2026-05-07 10:29 | 28.49231 | -87.31615 | 33991 ft | 415 kts | 286° |
| 2026-05-07 10:29 | 28.51027 | -87.37855 | 33991 ft | 416 kts | 285° |
| 2026-05-07 10:30 | 28.53723 | -87.47243 | 33990 ft | 416 kts | 285° |
| 2026-05-07 10:30 | 28.55517 | -87.53504 | 33991 ft | 416 kts | 285° |
| 2026-05-07 10:31 | 28.57308 | -87.59766 | 33988 ft | 416 kts | 285° |
| 2026-05-07 10:31 | 28.59083 | -87.65985 | 33988 ft | 416 kts | 285° |
| 2026-05-07 10:32 | 28.60865 | -87.72242 | 33987 ft | 416 kts | 285° |
| 2026-05-07 10:32 | 28.62649 | -87.78519 | 33988 ft | 417 kts | 285° |
| 2026-05-07 10:33 | 28.64431 | -87.84801 | 33988 ft | 417 kts | 285° |
| 2026-05-07 10:33 | 28.66209 | -87.91076 | 33987 ft | 415 kts | 285° |
| 2026-05-07 10:34 | 28.67971 | -87.97310 | 33985 ft | 413 kts | 285° |
| 2026-05-07 10:34 | 28.69730 | -88.03547 | 33985 ft | 413 kts | 285° |
| 2026-05-07 10:35 | 28.71475 | -88.09748 | 33987 ft | 413 kts | 285° |
| 2026-05-07 10:35 | 28.73228 | -88.15988 | 33988 ft | 413 kts | 285° |
| 2026-05-07 10:36 | 28.74975 | -88.22220 | 33987 ft | 413 kts | 285° |
| 2026-05-07 10:36 | 28.76722 | -88.28463 | 33988 ft | 413 kts | 285° |
| 2026-05-07 10:37 | 28.78466 | -88.34708 | 33985 ft | 413 kts | 285° |
| 2026-05-07 10:37 | 28.80206 | -88.40953 | 33984 ft | 413 kts | 285° |
| 2026-05-07 10:38 | 28.81941 | -88.47191 | 33985 ft | 413 kts | 284° |
| 2026-05-07 10:38 | 28.83677 | -88.53445 | 33986 ft | 414 kts | 284° |
| 2026-05-07 10:39 | 28.85410 | -88.59700 | 33982 ft | 414 kts | 284° |
| 2026-05-07 10:39 | 28.87142 | -88.65966 | 33982 ft | 414 kts | 284° |
| 2026-05-07 10:40 | 28.88752 | -88.72217 | 33982 ft | 413 kts | 281° |
| 2026-05-07 10:40 | 28.90111 | -88.78580 | 33982 ft | 412 kts | 281° |
| 2026-05-07 10:41 | 28.91460 | -88.84946 | 33979 ft | 412 kts | 281° |
| 2026-05-07 10:41 | 28.92810 | -88.91303 | 33979 ft | 412 kts | 281° |
| 2026-05-07 10:42 | 28.94158 | -88.97656 | 33979 ft | 412 kts | 281° |
| 2026-05-07 10:42 | 28.95504 | -89.04019 | 34007 ft | 412 kts | 281° |
| 2026-05-07 10:43 | 28.96843 | -89.10358 | 33976 ft | 409 kts | 281° |
| 2026-05-07 10:43 | 28.98174 | -89.16677 | 33977 ft | 409 kts | 281° |
| 2026-05-07 10:44 | 28.99501 | -89.22993 | 33977 ft | 409 kts | 281° |
| 2026-05-07 10:44 | 29.00825 | -89.29315 | 33977 ft | 409 kts | 281° |
| 2026-05-07 10:45 | 29.02147 | -89.35635 | 33974 ft | 409 kts | 281° |
| 2026-05-07 10:45 | 29.03469 | -89.41976 | 33974 ft | 409 kts | 281° |
| 2026-05-07 10:46 | 29.04777 | -89.48262 | 33974 ft | 409 kts | 281° |
| 2026-05-07 10:46 | 29.06089 | -89.54586 | 33971 ft | 409 kts | 280° |
| 2026-05-07 10:47 | 29.07401 | -89.60924 | 33971 ft | 409 kts | 280° |
| 2026-05-07 10:47 | 29.08707 | -89.67250 | 33972 ft | 409 kts | 280° |
| 2026-05-07 10:48 | 29.10012 | -89.73587 | 33969 ft | 409 kts | 280° |
| 2026-05-07 10:48 | 29.11314 | -89.79924 | 33969 ft | 409 kts | 280° |
| 2026-05-07 10:49 | 29.12611 | -89.86257 | 33969 ft | 409 kts | 280° |
| 2026-05-07 10:49 | 29.13907 | -89.92597 | 33963 ft | 409 kts | 280° |
| 2026-05-07 10:50 | 29.15198 | -89.98930 | 33969 ft | 409 kts | 280° |
| 2026-05-07 10:50 | 29.16490 | -90.05284 | 33967 ft | 411 kts | 279° |
| 2026-05-07 10:51 | 29.17539 | -90.11652 | 33971 ft | 408 kts | 272° |
| 2026-05-07 10:51 | 29.17828 | -90.18125 | 33967 ft | 408 kts | 270° |
| 2026-05-07 10:52 | 29.18057 | -90.24619 | 33971 ft | 407 kts | 270° |
| 2026-05-07 10:52 | 29.18288 | -90.31103 | 33972 ft | 407 kts | 270° |
| 2026-05-07 10:53 | 29.18479 | -90.36492 | 33970 ft | 408 kts | 270° |
| 2026-05-07 10:53 | 29.18745 | -90.44037 | 33970 ft | 408 kts | 270° |
| 2026-05-07 10:54 | 29.18934 | -90.49476 | 33969 ft | 408 kts | 270° |
| 2026-05-07 10:54 | 29.19155 | -90.55919 | 33961 ft | 408 kts | 269° |
| 2026-05-07 10:55 | 29.19375 | -90.62421 | 33966 ft | 408 kts | 269° |
| 2026-05-07 10:55 | 29.19591 | -90.68908 | 33966 ft | 408 kts | 269° |
| 2026-05-07 10:56 | 29.19804 | -90.75389 | 33962 ft | 408 kts | 269° |
| 2026-05-07 10:56 | 29.20015 | -90.81876 | 33965 ft | 407 kts | 269° |
| 2026-05-07 10:57 | 29.20220 | -90.88319 | 33960 ft | 407 kts | 269° |
| 2026-05-07 10:57 | 29.20424 | -90.94796 | 33961 ft | 407 kts | 269° |
| 2026-05-07 10:58 | 29.20624 | -91.01275 | 33961 ft | 407 kts | 269° |
| 2026-05-07 10:58 | 29.20822 | -91.07754 | 33968 ft | 407 kts | 269° |
| 2026-05-07 10:59 | 29.21016 | -91.14232 | 33965 ft | 407 kts | 269° |
| 2026-05-07 10:59 | 29.21206 | -91.20669 | 33966 ft | 406 kts | 269° |
| 2026-05-07 11:00 | 29.21393 | -91.27120 | 33966 ft | 405 kts | 269° |
| 2026-05-07 11:00 | 29.21577 | -91.33574 | 33966 ft | 405 kts | 269° |
| 2026-05-07 11:01 | 29.21758 | -91.40027 | 33966 ft | 405 kts | 269° |
| 2026-05-07 11:01 | 29.21936 | -91.46473 | 33966 ft | 405 kts | 269° |
| 2026-05-07 11:02 | 29.22111 | -91.52948 | 33968 ft | 405 kts | 269° |
| 2026-05-07 11:02 | 29.22283 | -91.59398 | 33966 ft | 404 kts | 269° |
| 2026-05-07 11:03 | 29.22451 | -91.65823 | 33966 ft | 404 kts | 269° |
| 2026-05-07 11:03 | 29.22616 | -91.72244 | 33966 ft | 404 kts | 269° |
| 2026-05-07 11:04 | 29.22776 | -91.78627 | 33967 ft | 404 kts | 269° |
| 2026-05-07 11:04 | 29.22935 | -91.85057 | 33969 ft | 404 kts | 269° |
| 2026-05-07 11:05 | 29.23091 | -91.91488 | 33978 ft | 404 kts | 269° |
| 2026-05-07 11:05 | 29.23243 | -91.97904 | 33969 ft | 402 kts | 269° |
| 2026-05-07 11:06 | 29.23392 | -92.04294 | 33973 ft | 401 kts | 269° |
| 2026-05-07 11:06 | 29.23537 | -92.10675 | 33975 ft | 400 kts | 269° |
| 2026-05-07 11:07 | 29.23679 | -92.17008 | 33970 ft | 400 kts | 269° |
| 2026-05-07 11:07 | 29.23818 | -92.23406 | 33969 ft | 400 kts | 269° |
| 2026-05-07 11:08 | 29.23955 | -92.29776 | 33965 ft | 400 kts | 269° |
| 2026-05-07 11:08 | 29.24088 | -92.36150 | 33970 ft | 400 kts | 269° |
| 2026-05-07 11:09 | 29.24218 | -92.42523 | 33979 ft | 400 kts | 269° |
| 2026-05-07 11:09 | 29.24461 | -92.48880 | 33963 ft | 401 kts | 272° |
| 2026-05-07 11:10 | 29.24951 | -92.55195 | 33976 ft | 401 kts | 272° |
| 2026-05-07 11:10 | 29.25447 | -92.61553 | 33964 ft | 400 kts | 272° |
| 2026-05-07 11:11 | 29.25935 | -92.67911 | 33981 ft | 401 kts | 272° |
| 2026-05-07 11:11 | 29.26420 | -92.74298 | 33968 ft | 405 kts | 271° |
| 2026-05-07 11:12 | 29.26908 | -92.80763 | 33974 ft | 407 kts | 271° |
| 2026-05-07 11:12 | 29.27391 | -92.87185 | 33966 ft | 407 kts | 271° |
| 2026-05-07 11:13 | 29.27874 | -92.93662 | 33976 ft | 407 kts | 271° |
| 2026-05-07 11:13 | 29.28351 | -93.00101 | 33971 ft | 403 kts | 271° |
| 2026-05-07 11:14 | 29.28842 | -93.06476 | 33990 ft | 401 kts | 271° |
| 2026-05-07 11:14 | 29.29337 | -93.12842 | 33974 ft | 400 kts | 271° |
| 2026-05-07 11:15 | 29.29828 | -93.19200 | 33675 ft | 401 kts | 271° |
| 2026-05-07 11:15 | 29.30073 | -93.22390 | 32892 ft | 403 kts | 271° |
| 2026-05-07 11:15 | 29.30319 | -93.25601 | 31993 ft | 406 kts | 271° |
| 2026-05-07 11:16 | 29.30565 | -93.28837 | 31111 ft | 409 kts | 271° |
| 2026-05-07 11:16 | 29.30812 | -93.32085 | 30234 ft | 411 kts | 271° |
| 2026-05-07 11:16 | 29.31061 | -93.35361 | 29279 ft | 413 kts | 271° |
| 2026-05-07 11:16 | 29.31310 | -93.38636 | 28423 ft | 412 kts | 271° |
| 2026-05-07 11:17 | 29.31556 | -93.41888 | 27701 ft | 407 kts | 271° |
| 2026-05-07 11:17 | 29.31800 | -93.45113 | 27001 ft | 404 kts | 271° |
| 2026-05-07 11:17 | 29.32040 | -93.48307 | 26270 ft | 401 kts | 271° |
| 2026-05-07 11:17 | 29.32273 | -93.51433 | 25628 ft | 397 kts | 271° |
| 2026-05-07 11:18 | 29.32510 | -93.54602 | 25066 ft | 392 kts | 271° |
| 2026-05-07 11:18 | 29.32736 | -93.57645 | 24595 ft | 385 kts | 271° |
| 2026-05-07 11:18 | 29.32964 | -93.60709 | 24150 ft | 378 kts | 271° |
| 2026-05-07 11:18 | 29.33181 | -93.63644 | 23733 ft | 372 kts | 270° |
| 2026-05-07 11:19 | 29.33396 | -93.66579 | 23251 ft | 367 kts | 270° |
| 2026-05-07 11:19 | 29.33608 | -93.69469 | 22807 ft | 361 kts | 270° |
| 2026-05-07 11:19 | 29.33815 | -93.72303 | 22396 ft | 355 kts | 270° |
| 2026-05-07 11:19 | 29.34018 | -93.75104 | 21987 ft | 350 kts | 270° |
| 2026-05-07 11:20 | 29.34219 | -93.77869 | 21585 ft | 346 kts | 270° |
| 2026-05-07 11:20 | 29.34416 | -93.80600 | 21194 ft | 342 kts | 270° |
| 2026-05-07 11:20 | 29.34611 | -93.83296 | 20768 ft | 339 kts | 270° |
| 2026-05-07 11:20 | 29.34804 | -93.85982 | 20362 ft | 336 kts | 270° |
| 2026-05-07 11:21 | 29.34987 | -93.88639 | 19969 ft | 333 kts | 270° |
| 2026-05-07 11:21 | 29.35140 | -93.91265 | 19593 ft | 329 kts | 269° |
| 2026-05-07 11:21 | 29.35285 | -93.93879 | 19205 ft | 327 kts | 269° |
| 2026-05-07 11:21 | 29.35427 | -93.96480 | 18793 ft | 326 kts | 269° |
| 2026-05-07 11:22 | 29.35568 | -93.99070 | 18387 ft | 325 kts | 269° |
| 2026-05-07 11:22 | 29.35709 | -94.01642 | 17967 ft | 323 kts | 269° |
| 2026-05-07 11:22 | 29.35848 | -94.04202 | 17564 ft | 320 kts | 270° |
| 2026-05-07 11:22 | 29.35986 | -94.06745 | 17180 ft | 317 kts | 270° |
| 2026-05-07 11:23 | 29.36120 | -94.09229 | 16798 ft | 316 kts | 270° |
| 2026-05-07 11:23 | 29.36257 | -94.11774 | 16397 ft | 316 kts | 270° |
| 2026-05-07 11:23 | 29.36390 | -94.14251 | 16015 ft | 315 kts | 270° |
| 2026-05-07 11:23 | 29.36524 | -94.16755 | 15621 ft | 314 kts | 271° |
| 2026-05-07 11:24 | 29.36657 | -94.19243 | 15239 ft | 313 kts | 271° |
| 2026-05-07 11:24 | 29.36789 | -94.21733 | 14861 ft | 313 kts | 271° |
| 2026-05-07 11:24 | 29.36927 | -94.24232 | 14475 ft | 313 kts | 272° |
| 2026-05-07 11:24 | 29.37081 | -94.26687 | 14293 ft | 304 kts | 272° |
| 2026-05-07 11:25 | 29.37234 | -94.29054 | 14197 ft | 292 kts | 272° |
| 2026-05-07 11:25 | 29.37381 | -94.31337 | 14072 ft | 282 kts | 272° |
| 2026-05-07 11:25 | 29.37522 | -94.33544 | 13942 ft | 274 kts | 272° |
| 2026-05-07 11:25 | 29.37661 | -94.35736 | 13586 ft | 276 kts | 273° |
| 2026-05-07 11:26 | 29.37842 | -94.37929 | 13229 ft | 276 kts | 275° |
| 2026-05-07 11:26 | 29.38059 | -94.40081 | 12920 ft | 275 kts | 275° |
| 2026-05-07 11:26 | 29.38286 | -94.42257 | 12600 ft | 274 kts | 276° |
| 2026-05-07 11:26 | 29.38516 | -94.44450 | 12273 ft | 273 kts | 276° |
| 2026-05-07 11:27 | 29.38738 | -94.46582 | 11981 ft | 272 kts | 276° |
| 2026-05-07 11:27 | 29.38962 | -94.48723 | 11667 ft | 271 kts | 276° |
| 2026-05-07 11:27 | 29.39185 | -94.50864 | 11353 ft | 270 kts | 276° |
| 2026-05-07 11:27 | 29.39407 | -94.53005 | 11033 ft | 270 kts | 276° |
| 2026-05-07 11:28 | 29.39628 | -94.55134 | 10731 ft | 269 kts | 277° |
| 2026-05-07 11:28 | 29.39848 | -94.57265 | 10400 ft | 269 kts | 277° |
| 2026-05-07 11:28 | 29.40068 | -94.59392 | 10080 ft | 268 kts | 278° |
| 2026-05-07 11:28 | 29.40288 | -94.61518 | 9760 ft | 268 kts | 278° |
| 2026-05-07 11:29 | 29.40508 | -94.63647 | 9399 ft | 268 kts | 278° |
| 2026-05-07 11:29 | 29.40728 | -94.65776 | 9094 ft | 268 kts | 278° |
| 2026-05-07 11:29 | 29.40946 | -94.67890 | 8833 ft | 274 kts | 278° |
| 2026-05-07 11:29 | 29.41169 | -94.70063 | 8474 ft | 272 kts | 277° |
| 2026-05-07 11:30 | 29.41388 | -94.72206 | 8157 ft | 269 kts | 277° |
| 2026-05-07 11:30 | 29.41607 | -94.74345 | 7865 ft | 269 kts | 277° |
| 2026-05-07 11:30 | 29.41824 | -94.76472 | 7559 ft | 268 kts | 277° |
| 2026-05-07 11:30 | 29.42040 | -94.78587 | 7259 ft | 266 kts | 277° |
| 2026-05-07 11:31 | 29.42252 | -94.80675 | 6970 ft | 263 kts | 276° |
| 2026-05-07 11:31 | 29.42462 | -94.82735 | 6774 ft | 255 kts | 276° |
| 2026-05-07 11:31 | 29.42665 | -94.84735 | 6499 ft | 250 kts | 276° |
| 2026-05-07 11:31 | 29.42869 | -94.86691 | 6203 ft | 244 kts | 276° |
| 2026-05-07 11:32 | 29.43250 | -94.90430 | 5786 ft | 228 kts | 275° |
| 2026-05-07 11:32 | 29.43417 | -94.92233 | 5604 ft | 228 kts | 274° |
| 2026-05-07 11:32 | 29.43575 | -94.94035 | 5349 ft | 227 kts | 275° |
| 2026-05-07 11:33 | 29.43760 | -94.95824 | 5016 ft | 231 kts | 276° |
| 2026-05-07 11:33 | 29.43956 | -94.97664 | 4691 ft | 233 kts | 275° |
| 2026-05-07 11:33 | 29.44148 | -94.99498 | 4468 ft | 230 kts | 275° |
| 2026-05-07 11:33 | 29.44334 | -95.01313 | 4250 ft | 227 kts | 275° |
| 2026-05-07 11:34 | 29.44557 | -95.03098 | 4035 ft | 226 kts | 282° |
| 2026-05-07 11:34 | 29.45143 | -95.04761 | 3817 ft | 225 kts | 303° |
| 2026-05-07 11:34 | 29.46130 | -95.06119 | 3622 ft | 218 kts | 313° |
| 2026-05-07 11:34 | 29.47190 | -95.07358 | 3327 ft | 216 kts | 315° |
| 2026-05-07 11:35 | 29.48241 | -95.08536 | 3258 ft | 202 kts | 315° |
| 2026-05-07 11:35 | 29.49189 | -95.09634 | 3225 ft | 184 kts | 313° |
| 2026-05-07 11:35 | 29.50033 | -95.10644 | 3193 ft | 165 kts | 313° |
| 2026-05-07 11:35 | 29.50777 | -95.11542 | 3176 ft | 148 kts | 313° |
| 2026-05-07 11:36 | 29.51477 | -95.12424 | 3176 ft | 152 kts | 314° |
| 2026-05-07 11:36 | 29.52219 | -95.13298 | 3178 ft | 153 kts | 319° |
| 2026-05-07 11:36 | 29.52980 | -95.14148 | 3058 ft | 153 kts | 321° |
| 2026-05-07 11:36 | 29.53732 | -95.15029 | 2809 ft | 154 kts | 318° |
| 2026-05-07 11:37 | 29.54467 | -95.15908 | 2594 ft | 152 kts | 317° |
| 2026-05-07 11:37 | 29.55198 | -95.16784 | 2390 ft | 151 kts | 320° |
| 2026-05-07 11:37 | 29.55913 | -95.17624 | 2209 ft | 142 kts | 319° |
| 2026-05-07 11:37 | 29.56585 | -95.18433 | 2025 ft | 139 kts | 320° |
| 2026-05-07 11:38 | 29.57254 | -95.19236 | 1835 ft | 138 kts | 325° |
| 2026-05-07 11:38 | 29.57920 | -95.20020 | 1665 ft | 137 kts | 326° |
| 2026-05-07 11:38 | 29.58583 | -95.20804 | 1475 ft | 138 kts | 327° |
| 2026-05-07 11:38 | 29.59032 | -95.21330 | 1345 ft | 136 kts | 324° |
| 2026-05-07 11:39 | 29.59890 | -95.22385 | 1088 ft | 137 kts | 317° |
| 2026-05-07 11:39 | 29.60477 | -95.23240 | 816 ft | 137 kts | 319° |
| 2026-05-07 11:39 | 29.60910 | -95.23773 | 715 ft | 136 kts | 321° |
| 2026-05-07 11:39 | 29.61821 | -95.24772 | 633 ft | 137 kts | 325° |
| 2026-05-07 11:40 | 29.62524 | -95.25524 | 463 ft | 138 kts | 324° |
| 2026-05-07 11:40 | 29.62987 | -95.26034 | 294 ft | 132 kts | 318° |
| 2026-05-07 11:40 | 29.63594 | -95.26801 | 106 ft | 128 kts | 322° |
| 2026-05-07 11:40 | 29.64201 | -95.27493 | 50 ft | 119 kts | 319° |
| 2026-05-07 11:41 | 29.64678 | -95.28063 | 51 ft | 78 kts | 314° |
| 2026-05-07 11:41 | 29.65013 | -95.28454 | 53 ft | 62 kts | 310° |
| 2026-05-07 11:41 | 29.64038 | -95.27325 | 58 ft | 0 kts | 323° |